sensor_id;sensor_type;location;lat;lon;timestamp;pressure;altitude;pressure_sealevel;temperature;humidity
33795;BME280;51430;52.242;21.118;2023-04-23T00:00:27;100056.83;;;11.31;61.67
33795;BME280;51430;52.242;21.118;2023-04-23T00:03:23;100054.61;;;11.22;61.97
33795;BME280;51430;52.242;21.118;2023-04-23T00:05:56;100054.85;;;11.22;61.94
33795;BME280;51430;52.242;21.118;2023-04-23T00:08:25;100053.37;;;11.19;62.01
33795;BME280;51430;52.242;21.118;2023-04-23T00:10:53;100054.09;;;11.19;62.13
33795;BME280;51430;52.242;21.118;2023-04-23T00:13:22;100050.02;;;11.15;62.14
33795;BME280;51430;52.242;21.118;2023-04-23T00:15:50;100050.34;;;11.09;62.38
33795;BME280;51430;52.242;21.118;2023-04-23T00:18:18;100048.84;;;11.02;62.70
33795;BME280;51430;52.242;21.118;2023-04-23T00:20:47;100053.45;;;10.95;62.95
33795;BME280;51430;52.242;21.118;2023-04-23T00:23:15;100052.77;;;10.94;63.18
33795;BME280;51430;52.242;21.118;2023-04-23T00:25:42;100052.68;;;10.96;63.19
33795;BME280;51430;52.242;21.118;2023-04-23T00:28:10;100051.66;;;10.91;63.38
33795;BME280;51430;52.242;21.118;2023-04-23T00:30:38;100046.42;;;10.87;63.70
33795;BME280;51430;52.242;21.118;2023-04-23T00:33:06;100043.80;;;10.87;63.71
33795;BME280;51430;52.242;21.118;2023-04-23T00:35:34;100042.42;;;10.83;63.78
33795;BME280;51430;52.242;21.118;2023-04-23T00:38:04;100042.67;;;10.80;64.00
33795;BME280;51430;52.242;21.118;2023-04-23T00:40:32;100039.55;;;10.65;64.68
33795;BME280;51430;52.242;21.118;2023-04-23T00:43:00;100039.55;;;10.65;64.62
33795;BME280;51430;52.242;21.118;2023-04-23T00:45:29;100039.02;;;10.59;64.82
33795;BME280;51430;52.242;21.118;2023-04-23T00:47:57;100035.27;;;10.53;64.90
33795;BME280;51430;52.242;21.118;2023-04-23T00:50:25;100034.42;;;10.46;65.24
33795;BME280;51430;52.242;21.118;2023-04-23T00:52:53;100037.24;;;10.40;65.50
33795;BME280;51430;52.242;21.118;2023-04-23T00:55:21;100039.77;;;10.39;65.45
33795;BME280;51430;52.242;21.118;2023-04-23T00:57:49;100037.15;;;10.36;65.73
33795;BME280;51430;52.242;21.118;2023-04-23T01:00:18;100034.95;;;10.36;65.77
33795;BME280;51430;52.242;21.118;2023-04-23T01:02:47;100038.73;;;10.34;65.70
33795;BME280;51430;52.242;21.118;2023-04-23T01:05:18;100037.91;;;10.27;66.03
33795;BME280;51430;52.242;21.118;2023-04-23T01:07:46;100037.02;;;10.34;65.90
33795;BME280;51430;52.242;21.118;2023-04-23T01:10:16;100037.06;;;10.31;66.04
33795;BME280;51430;52.242;21.118;2023-04-23T01:12:44;100040.64;;;10.19;66.42
33795;BME280;51430;52.242;21.118;2023-04-23T01:15:11;100043.77;;;10.23;66.29
33795;BME280;51430;52.242;21.118;2023-04-23T01:17:40;100044.45;;;10.22;66.56
33795;BME280;51430;52.242;21.118;2023-04-23T01:20:10;100045.66;;;10.22;66.64
33795;BME280;51430;52.242;21.118;2023-04-23T01:22:38;100043.51;;;10.16;66.77
33795;BME280;51430;52.242;21.118;2023-04-23T01:25:06;100045.59;;;10.18;66.62
33795;BME280;51430;52.242;21.118;2023-04-23T01:27:34;100042.34;;;10.22;66.48
33795;BME280;51430;52.242;21.118;2023-04-23T01:30:03;100043.95;;;10.21;66.37
33795;BME280;51430;52.242;21.118;2023-04-23T01:32:34;100041.77;;;10.07;67.08
33795;BME280;51430;52.242;21.118;2023-04-23T01:35:02;100042.30;;;10.07;66.94
33795;BME280;51430;52.242;21.118;2023-04-23T01:37:32;100041.06;;;9.98;67.41
33795;BME280;51430;52.242;21.118;2023-04-23T01:40:00;100042.30;;;9.98;67.34
33795;BME280;51430;52.242;21.118;2023-04-23T01:42:28;100037.51;;;9.97;67.73
33795;BME280;51430;52.242;21.118;2023-04-23T01:44:56;100036.27;;;9.99;67.62
33795;BME280;51430;52.242;21.118;2023-04-23T01:47:25;100033.96;;;9.91;67.54
33795;BME280;51430;52.242;21.118;2023-04-23T01:49:54;100038.19;;;9.86;67.98
33795;BME280;51430;52.242;21.118;2023-04-23T01:52:22;100037.55;;;9.83;68.07
33795;BME280;51430;52.242;21.118;2023-04-23T01:54:49;100040.16;;;9.83;68.01
33795;BME280;51430;52.242;21.118;2023-04-23T01:57:18;100037.55;;;9.82;68.20
33795;BME280;51430;52.242;21.118;2023-04-23T02:00:02;100033.57;;;9.83;68.03
33795;BME280;51430;52.242;21.118;2023-04-23T02:02:34;100039.52;;;9.78;68.23
33795;BME280;51430;52.242;21.118;2023-04-23T02:05:03;100040.98;;;9.70;68.48
33795;BME280;51430;52.242;21.118;2023-04-23T02:07:33;100038.18;;;9.66;68.61
33795;BME280;51430;52.242;21.118;2023-04-23T02:10:01;100040.44;;;9.70;68.50
33795;BME280;51430;52.242;21.118;2023-04-23T02:12:31;100039.66;;;9.71;68.43
33795;BME280;51430;52.242;21.118;2023-04-23T02:14:59;100040.84;;;9.74;68.22
33795;BME280;51430;52.242;21.118;2023-04-23T02:17:28;100042.47;;;9.76;68.45
33795;BME280;51430;52.242;21.118;2023-04-23T02:19:55;100040.85;;;9.70;68.52
33795;BME280;51430;52.242;21.118;2023-04-23T02:22:23;100037.39;;;9.69;68.66
33795;BME280;51430;52.242;21.118;2023-04-23T02:24:53;100038.43;;;9.65;68.75
33795;BME280;51430;52.242;21.118;2023-04-23T02:27:21;100039.82;;;9.63;68.86
33795;BME280;51430;52.242;21.118;2023-04-23T02:29:49;100040.28;;;9.59;69.13
33795;BME280;51430;52.242;21.118;2023-04-23T02:32:17;100037.56;;;9.65;68.94
33795;BME280;51430;52.242;21.118;2023-04-23T02:34:44;100035.98;;;9.67;68.72
33795;BME280;51430;52.242;21.118;2023-04-23T02:37:13;100035.20;;;9.68;68.75
33795;BME280;51430;52.242;21.118;2023-04-23T02:39:41;100033.13;;;9.68;68.67
33795;BME280;51430;52.242;21.118;2023-04-23T02:42:08;100033.23;;;9.58;69.04
33795;BME280;51430;52.242;21.118;2023-04-23T02:44:36;100035.77;;;9.57;69.05
33795;BME280;51430;52.242;21.118;2023-04-23T02:47:04;100031.34;;;9.53;69.29
33795;BME280;51430;52.242;21.118;2023-04-23T02:49:32;100030.98;;;9.53;69.28
33795;BME280;51430;52.242;21.118;2023-04-23T02:52:00;100032.61;;;9.50;69.50
33795;BME280;51430;52.242;21.118;2023-04-23T02:54:28;100035.48;;;9.47;69.68
33795;BME280;51430;52.242;21.118;2023-04-23T02:57:00;100034.83;;;9.46;69.62
33795;BME280;51430;52.242;21.118;2023-04-23T03:05:54;100032.21;;;9.22;70.64
33795;BME280;51430;52.242;21.118;2023-04-23T03:08:25;100038.41;;;9.06;71.35
33795;BME280;51430;52.242;21.118;2023-04-23T03:10:59;100032.52;;;9.20;70.54
33795;BME280;51430;52.242;21.118;2023-04-23T03:13:28;100032.21;;;9.21;70.57
33795;BME280;51430;52.242;21.118;2023-04-23T03:15:56;100030.06;;;9.23;70.57
33795;BME280;51430;52.242;21.118;2023-04-23T03:18:25;100030.32;;;9.19;70.65
33795;BME280;51430;52.242;21.118;2023-04-23T03:20:54;100031.40;;;9.16;70.73
33795;BME280;51430;52.242;21.118;2023-04-23T03:23:23;100028.51;;;9.18;70.61
33795;BME280;51430;52.242;21.118;2023-04-23T03:25:52;100028.55;;;9.15;70.83
33795;BME280;51430;52.242;21.118;2023-04-23T03:28:20;100029.91;;;9.18;70.88
33795;BME280;51430;52.242;21.118;2023-04-23T03:30:49;100027.05;;;9.17;70.80
33795;BME280;51430;52.242;21.118;2023-04-23T03:33:17;100024.90;;;9.15;70.94
33795;BME280;51430;52.242;21.118;2023-04-23T03:35:45;100024.96;;;9.09;71.13
33795;BME280;51430;52.242;21.118;2023-04-23T03:38:13;100022.22;;;9.16;70.82
33795;BME280;51430;52.242;21.118;2023-04-23T03:40:41;100020.96;;;9.18;70.50
33795;BME280;51430;52.242;21.118;2023-04-23T03:43:12;100020.25;;;9.19;70.56
33795;BME280;51430;52.242;21.118;2023-04-23T03:45:42;100024.48;;;9.13;70.82
33795;BME280;51430;52.242;21.118;2023-04-23T03:48:10;100025.95;;;9.15;70.80
33795;BME280;51430;52.242;21.118;2023-04-23T03:50:40;100024.17;;;9.20;70.43
33795;BME280;51430;52.242;21.118;2023-04-23T03:53:32;100025.70;;;9.16;70.74
33795;BME280;51430;52.242;21.118;2023-04-23T03:56:04;100030.86;;;9.05;71.14
33795;BME280;51430;52.242;21.118;2023-04-23T04:05:05;100026.92;;;9.27;70.11
33795;BME280;51430;52.242;21.118;2023-04-23T04:07:33;100027.20;;;9.28;70.21
33795;BME280;51430;52.242;21.118;2023-04-23T04:10:05;100027.91;;;9.39;69.72
33795;BME280;51430;52.242;21.118;2023-04-23T04:12:34;100030.37;;;9.36;69.52
33795;BME280;51430;52.242;21.118;2023-04-23T04:15:05;100028.58;;;9.49;69.38
33795;BME280;51430;52.242;21.118;2023-04-23T04:17:33;100033.06;;;9.62;68.60
33795;BME280;51430;52.242;21.118;2023-04-23T04:20:02;100034.97;;;9.65;68.65
33795;BME280;51430;52.242;21.118;2023-04-23T04:22:33;100034.34;;;9.79;68.11
33795;BME280;51430;52.242;21.118;2023-04-23T04:25:01;100036.36;;;9.78;68.28
33795;BME280;51430;52.242;21.118;2023-04-23T04:27:30;100030.50;;;9.88;67.83
33795;BME280;51430;52.242;21.118;2023-04-23T04:30:01;100028.58;;;9.98;67.43
33795;BME280;51430;52.242;21.118;2023-04-23T04:32:34;100031.79;;;10.08;67.12
33795;BME280;51430;52.242;21.118;2023-04-23T04:35:06;100030.13;;;10.09;66.91
33795;BME280;51430;52.242;21.118;2023-04-23T04:37:37;100030.23;;;10.12;66.69
33795;BME280;51430;52.242;21.118;2023-04-23T04:40:06;100031.87;;;10.16;66.43
33795;BME280;51430;52.242;21.118;2023-04-23T04:42:43;100036.11;;;10.21;66.37
33795;BME280;51430;52.242;21.118;2023-04-23T04:45:19;100033.92;;;10.20;66.05
33795;BME280;51430;52.242;21.118;2023-04-23T04:47:47;100036.95;;;10.17;66.10
33795;BME280;51430;52.242;21.118;2023-04-23T04:50:25;100034.94;;;10.23;65.78
33795;BME280;51430;52.242;21.118;2023-04-23T04:52:57;100038.09;;;10.31;66.00
33795;BME280;51430;52.242;21.118;2023-04-23T04:55:29;100037.57;;;10.46;65.33
33795;BME280;51430;52.242;21.118;2023-04-23T04:58:16;100034.53;;;10.52;65.49
33795;BME280;51430;52.242;21.118;2023-04-23T05:00:48;100036.07;;;10.54;65.33
33795;BME280;51430;52.242;21.118;2023-04-23T05:03:19;100032.87;;;10.76;64.72
33795;BME280;51430;52.242;21.118;2023-04-23T05:05:48;100033.64;;;10.96;64.08
33795;BME280;51430;52.242;21.118;2023-04-23T05:08:15;100031.35;;;10.94;63.98
33795;BME280;51430;52.242;21.118;2023-04-23T05:10:44;100031.77;;;11.10;63.66
33795;BME280;51430;52.242;21.118;2023-04-23T05:13:12;100032.16;;;11.24;63.22
33795;BME280;51430;52.242;21.118;2023-04-23T05:22:19;100033.41;;;11.77;62.15
33795;BME280;51430;52.242;21.118;2023-04-23T05:24:47;100039.11;;;12.64;59.75
33795;BME280;51430;52.242;21.118;2023-04-23T05:27:15;100035.65;;;13.49;57.00
33795;BME280;51430;52.242;21.118;2023-04-23T05:29:44;100035.20;;;14.08;55.20
33795;BME280;51430;52.242;21.118;2023-04-23T05:32:12;100038.36;;;14.56;54.08
33795;BME280;51430;52.242;21.118;2023-04-23T05:34:42;100038.27;;;15.24;51.84
33795;BME280;51430;52.242;21.118;2023-04-23T05:37:11;100042.41;;;15.68;50.80
33795;BME280;51430;52.242;21.118;2023-04-23T05:39:44;100047.95;;;15.81;49.84
33795;BME280;51430;52.242;21.118;2023-04-23T05:42:12;100043.24;;;16.18;48.97
33795;BME280;51430;52.242;21.118;2023-04-23T05:44:40;100047.36;;;15.97;49.03
33795;BME280;51430;52.242;21.118;2023-04-23T05:47:09;100042.52;;;16.09;48.91
33795;BME280;51430;52.242;21.118;2023-04-23T05:49:38;100041.65;;;16.21;48.42
33795;BME280;51430;52.242;21.118;2023-04-23T05:52:06;100043.66;;;16.05;48.94
33795;BME280;51430;52.242;21.118;2023-04-23T05:54:34;100043.45;;;16.64;47.44
33795;BME280;51430;52.242;21.118;2023-04-23T05:57:02;100042.07;;;16.34;48.17
33795;BME280;51430;52.242;21.118;2023-04-23T05:59:32;100040.04;;;16.69;47.45
33795;BME280;51430;52.242;21.118;2023-04-23T06:02:00;100039.15;;;17.10;45.97
33795;BME280;51430;52.242;21.118;2023-04-23T06:04:28;100040.79;;;16.93;46.08
33795;BME280;51430;52.242;21.118;2023-04-23T06:07:00;100039.90;;;17.09;45.83
33795;BME280;51430;52.242;21.118;2023-04-23T06:09:33;100035.00;;;17.48;45.12
33795;BME280;51430;52.242;21.118;2023-04-23T06:12:01;100037.94;;;18.34;43.93
33795;BME280;51430;52.242;21.118;2023-04-23T06:14:29;100035.75;;;18.88;42.76
33795;BME280;51430;52.242;21.118;2023-04-23T06:17:00;100038.77;;;19.25;41.69
33795;BME280;51430;52.242;21.118;2023-04-23T06:19:28;100042.01;;;19.07;41.74
33795;BME280;51430;52.242;21.118;2023-04-23T06:21:59;100039.13;;;19.03;41.61
33795;BME280;51430;52.242;21.118;2023-04-23T06:24:27;100039.38;;;19.13;41.40
33795;BME280;51430;52.242;21.118;2023-04-23T06:26:55;100038.66;;;19.30;41.38
33795;BME280;51430;52.242;21.118;2023-04-23T06:29:24;100038.20;;;19.51;40.64
33795;BME280;51430;52.242;21.118;2023-04-23T06:31:55;100038.91;;;19.16;40.76
33795;BME280;51430;52.242;21.118;2023-04-23T06:34:23;100039.80;;;19.43;40.59
33795;BME280;51430;52.242;21.118;2023-04-23T06:41:30;100038.11;;;19.48;39.90
33795;BME280;51430;52.242;21.118;2023-04-23T06:43:57;100037.60;;;19.44;39.84
33795;BME280;51430;52.242;21.118;2023-04-23T06:46:23;100036.20;;;19.58;39.98
33795;BME280;51430;52.242;21.118;2023-04-23T06:48:50;100035.55;;;19.69;39.86
33795;BME280;51430;52.242;21.118;2023-04-23T06:51:16;100037.40;;;19.54;39.61
33795;BME280;51430;52.242;21.118;2023-04-23T06:53:43;100033.02;;;19.27;40.17
33795;BME280;51430;52.242;21.118;2023-04-23T06:56:10;100032.06;;;19.76;39.60
33795;BME280;51430;52.242;21.118;2023-04-23T06:58:39;100031.73;;;20.15;39.16
33795;BME280;51430;52.242;21.118;2023-04-23T07:01:08;100031.95;;;20.58;38.08
33795;BME280;51430;52.242;21.118;2023-04-23T07:03:39;100027.70;;;20.40;37.93
33795;BME280;51430;52.242;21.118;2023-04-23T07:06:11;100025.93;;;20.12;38.29
33795;BME280;51430;52.242;21.118;2023-04-23T07:08:38;100029.77;;;20.68;37.69
33795;BME280;51430;52.242;21.118;2023-04-23T07:11:05;100034.38;;;21.11;36.98
33795;BME280;51430;52.242;21.118;2023-04-23T07:13:35;100038.29;;;20.87;37.07
33795;BME280;51430;52.242;21.118;2023-04-23T07:16:10;100036.95;;;20.63;36.78
33795;BME280;51430;52.242;21.118;2023-04-23T07:18:47;100034.46;;;20.32;37.19
33795;BME280;51430;52.242;21.118;2023-04-23T07:27:26;100031.69;;;20.01;37.50
33795;BME280;51430;52.242;21.118;2023-04-23T07:29:54;100031.92;;;20.53;37.23
33795;BME280;51430;52.242;21.118;2023-04-23T07:32:22;100032.95;;;20.10;36.83
33795;BME280;51430;52.242;21.118;2023-04-23T07:34:54;100026.41;;;19.62;37.77
33795;BME280;51430;52.242;21.118;2023-04-23T07:37:25;100020.00;;;19.68;37.81
33795;BME280;51430;52.242;21.118;2023-04-23T07:39:53;100024.00;;;20.32;36.79
33795;BME280;51430;52.242;21.118;2023-04-23T07:42:22;100021.82;;;20.67;36.23
33795;BME280;51430;52.242;21.118;2023-04-23T07:44:53;100018.57;;;20.64;36.01
33795;BME280;51430;52.242;21.118;2023-04-23T07:47:43;100019.64;;;20.65;36.26
33795;BME280;51430;52.242;21.118;2023-04-23T07:50:19;100020.41;;;21.15;35.74
33795;BME280;51430;52.242;21.118;2023-04-23T07:52:47;100015.57;;;21.27;35.19
33795;BME280;51430;52.242;21.118;2023-04-23T07:55:15;100012.13;;;21.56;34.73
33795;BME280;51430;52.242;21.118;2023-04-23T07:57:43;100019.54;;;21.52;34.40
33795;BME280;51430;52.242;21.118;2023-04-23T08:00:11;100018.14;;;21.57;34.49
33795;BME280;51430;52.242;21.118;2023-04-23T08:02:40;100018.17;;;21.83;34.35
33795;BME280;51430;52.242;21.118;2023-04-23T08:05:09;100016.90;;;22.46;34.32
33795;BME280;51430;52.242;21.118;2023-04-23T08:07:37;100019.77;;;22.70;32.78
33795;BME280;51430;52.242;21.118;2023-04-23T08:10:06;100019.55;;;22.52;33.28
33795;BME280;51430;52.242;21.118;2023-04-23T08:12:34;100019.79;;;21.84;33.88
33795;BME280;51430;52.242;21.118;2023-04-23T08:15:02;100017.52;;;22.25;33.87
33795;BME280;51430;52.242;21.118;2023-04-23T08:17:30;100018.95;;;22.29;32.83
33795;BME280;51430;52.242;21.118;2023-04-23T08:20:00;100013.63;;;22.48;33.03
33795;BME280;51430;52.242;21.118;2023-04-23T08:22:30;100010.70;;;22.34;32.89
33795;BME280;51430;52.242;21.118;2023-04-23T08:24:58;100010.64;;;22.62;32.49
33795;BME280;51430;52.242;21.118;2023-04-23T08:27:26;100008.30;;;23.02;31.85
33795;BME280;51430;52.242;21.118;2023-04-23T08:29:56;100009.27;;;22.90;31.42
33795;BME280;51430;52.242;21.118;2023-04-23T08:32:28;100008.83;;;22.20;32.19
33795;BME280;51430;52.242;21.118;2023-04-23T08:34:59;100004.38;;;22.31;32.04
33795;BME280;51430;52.242;21.118;2023-04-23T08:37:28;100003.56;;;22.34;32.15
33795;BME280;51430;52.242;21.118;2023-04-23T08:41:04;100004.84;;;22.67;31.17
33795;BME280;51430;52.242;21.118;2023-04-23T08:44:18;100000.15;;;23.12;31.00
33795;BME280;51430;52.242;21.118;2023-04-23T08:46:49;100000.41;;;23.17;30.36
33795;BME280;51430;52.242;21.118;2023-04-23T08:49:18;100003.35;;;23.08;29.94
33795;BME280;51430;52.242;21.118;2023-04-23T08:51:52;99996.59;;;23.25;29.69
33795;BME280;51430;52.242;21.118;2023-04-23T08:54:24;99992.62;;;23.55;29.29
33795;BME280;51430;52.242;21.118;2023-04-23T08:56:57;99997.75;;;23.37;29.00
33795;BME280;51430;52.242;21.118;2023-04-23T08:59:29;99991.48;;;23.63;29.27
33795;BME280;51430;52.242;21.118;2023-04-23T09:02:02;99987.23;;;23.80;28.82
33795;BME280;51430;52.242;21.118;2023-04-23T09:04:36;99989.77;;;23.03;29.32
33795;BME280;51430;52.242;21.118;2023-04-23T09:07:06;99990.01;;;22.97;29.42
33795;BME280;51430;52.242;21.118;2023-04-23T09:09:43;99986.88;;;23.44;28.35
33795;BME280;51430;52.242;21.118;2023-04-23T09:12:14;99987.65;;;23.91;27.98
33795;BME280;51430;52.242;21.118;2023-04-23T09:14:45;99988.84;;;23.87;27.94
33795;BME280;51430;52.242;21.118;2023-04-23T09:17:16;99978.10;;;23.73;28.57
33795;BME280;51430;52.242;21.118;2023-04-23T09:19:46;99984.20;;;24.52;27.25
33795;BME280;51430;52.242;21.118;2023-04-23T09:22:47;99981.64;;;24.65;27.52
33795;BME280;51430;52.242;21.118;2023-04-23T09:25:19;99980.20;;;24.43;27.58
33795;BME280;51430;52.242;21.118;2023-04-23T09:27:50;99970.67;;;24.58;27.27
33795;BME280;51430;52.242;21.118;2023-04-23T09:30:19;99970.80;;;24.62;27.43
33795;BME280;51430;52.242;21.118;2023-04-23T09:32:50;99976.05;;;24.77;27.31
33795;BME280;51430;52.242;21.118;2023-04-23T09:35:22;99972.70;;;25.33;26.65
33795;BME280;51430;52.242;21.118;2023-04-23T09:37:55;99967.58;;;25.34;26.53
33795;BME280;51430;52.242;21.118;2023-04-23T09:40:27;99969.23;;;26.40;25.65
33795;BME280;51430;52.242;21.118;2023-04-23T09:42:55;99964.92;;;26.26;25.36
33795;BME280;51430;52.242;21.118;2023-04-23T09:45:23;99961.98;;;26.30;24.83
33795;BME280;51430;52.242;21.118;2023-04-23T09:47:57;99960.48;;;25.68;25.37
33795;BME280;51430;52.242;21.118;2023-04-23T09:52:59;99958.20;;;25.12;25.73
33795;BME280;51430;52.242;21.118;2023-04-23T09:55:32;99955.36;;;25.56;25.94
33795;BME280;51430;52.242;21.118;2023-04-23T09:58:12;99958.07;;;26.46;24.87
33795;BME280;51430;52.242;21.118;2023-04-23T10:00:41;99955.66;;;26.38;24.93
33795;BME280;51430;52.242;21.118;2023-04-23T10:03:10;99951.66;;;26.14;25.12
33795;BME280;51430;52.242;21.118;2023-04-23T10:05:40;99952.31;;;25.76;25.55
33795;BME280;51430;52.242;21.118;2023-04-23T10:08:15;99940.38;;;26.37;25.46
33795;BME280;51430;52.242;21.118;2023-04-23T10:10:44;99941.41;;;27.33;24.69
33795;BME280;51430;52.242;21.118;2023-04-23T10:13:29;99934.27;;;27.00;24.64
33795;BME280;51430;52.242;21.118;2023-04-23T10:16:00;99933.84;;;27.13;24.87
33795;BME280;51430;52.242;21.118;2023-04-23T10:18:50;99931.66;;;27.30;24.67
33795;BME280;51430;52.242;21.118;2023-04-23T10:21:24;99934.61;;;27.66;24.70
33795;BME280;51430;52.242;21.118;2023-04-23T10:24:16;99930.90;;;28.21;23.90
33795;BME280;51430;52.242;21.118;2023-04-23T10:26:57;99933.96;;;28.66;23.37
33795;BME280;51430;52.242;21.118;2023-04-23T10:29:32;99931.27;;;28.80;24.08
33795;BME280;51430;52.242;21.118;2023-04-23T10:32:02;99927.17;;;28.63;24.04
33795;BME280;51430;52.242;21.118;2023-04-23T10:34:45;99925.85;;;28.47;24.34
33795;BME280;51430;52.242;21.118;2023-04-23T10:37:45;99921.30;;;27.48;24.78
33795;BME280;51430;52.242;21.118;2023-04-23T10:40:40;99914.84;;;27.49;25.18
33795;BME280;51430;52.242;21.118;2023-04-23T10:43:19;99909.45;;;27.61;25.27
33795;BME280;51430;52.242;21.118;2023-04-23T10:50:58;99903.20;;;28.00;23.92
33795;BME280;51430;52.242;21.118;2023-04-23T10:54:13;99906.10;;;28.19;24.57
33795;BME280;51430;52.242;21.118;2023-04-23T10:57:29;99898.88;;;28.10;24.82
33795;BME280;51430;52.242;21.118;2023-04-23T11:00:01;99903.62;;;28.55;24.45
33795;BME280;51430;52.242;21.118;2023-04-23T11:02:42;99899.36;;;27.90;24.89
33795;BME280;51430;52.242;21.118;2023-04-23T11:05:12;99898.55;;;27.62;24.92
33795;BME280;51430;52.242;21.118;2023-04-23T11:08:03;99892.42;;;27.74;24.95
33795;BME280;51430;52.242;21.118;2023-04-23T11:11:07;99888.30;;;29.52;23.60
33795;BME280;51430;52.242;21.118;2023-04-23T11:13:51;99886.50;;;28.53;23.88
33795;BME280;51430;52.242;21.118;2023-04-23T11:16:22;99882.03;;;29.12;24.06
33795;BME280;51430;52.242;21.118;2023-04-23T11:19:08;99885.31;;;29.46;23.49
33795;BME280;51430;52.242;21.118;2023-04-23T11:24:33;99885.05;;;28.53;23.57
33795;BME280;51430;52.242;21.118;2023-04-23T11:27:07;99876.00;;;28.84;23.86
33795;BME280;51430;52.242;21.118;2023-04-23T11:29:40;99870.56;;;29.86;23.94
33795;BME280;51430;52.242;21.118;2023-04-23T11:32:10;99869.15;;;30.42;22.62
33795;BME280;51430;52.242;21.118;2023-04-23T11:34:46;99873.41;;;29.28;23.18
33795;BME280;51430;52.242;21.118;2023-04-23T11:37:17;99867.91;;;29.09;23.03
33795;BME280;51430;52.242;21.118;2023-04-23T11:39:47;99861.42;;;29.89;22.99
33795;BME280;51430;52.242;21.118;2023-04-23T11:42:41;99868.99;;;29.20;22.99
33795;BME280;51430;52.242;21.118;2023-04-23T11:45:24;99856.52;;;29.39;23.09
33795;BME280;51430;52.242;21.118;2023-04-23T11:48:35;99857.15;;;30.20;22.35
33795;BME280;51430;52.242;21.118;2023-04-23T11:51:06;99859.47;;;29.69;22.43
33795;BME280;51430;52.242;21.118;2023-04-23T11:53:47;99858.04;;;29.61;22.68
33795;BME280;51430;52.242;21.118;2023-04-23T11:58:18;99847.45;;;29.65;22.67
33795;BME280;51430;52.242;21.118;2023-04-23T12:01:16;99854.91;;;30.67;21.86
33795;BME280;51430;52.242;21.118;2023-04-23T12:03:55;99850.23;;;30.14;22.58
33795;BME280;51430;52.242;21.118;2023-04-23T12:06:29;99846.59;;;30.25;22.42
33795;BME280;51430;52.242;21.118;2023-04-23T12:09:03;99844.38;;;29.41;22.63
33795;BME280;51430;52.242;21.118;2023-04-23T12:14:04;99852.54;;;28.66;23.10
33795;BME280;51430;52.242;21.118;2023-04-23T12:16:39;99848.52;;;28.18;23.62
33795;BME280;51430;52.242;21.118;2023-04-23T12:22:15;99844.02;;;30.53;22.46
33795;BME280;51430;52.242;21.118;2023-04-23T12:24:49;99838.30;;;29.98;22.40
33795;BME280;51430;52.242;21.118;2023-04-23T12:27:21;99825.27;;;29.86;22.38
33795;BME280;51430;52.242;21.118;2023-04-23T12:30:08;99830.19;;;29.09;23.01
33795;BME280;51430;52.242;21.118;2023-04-23T12:32:43;99823.80;;;28.97;23.21
33795;BME280;51430;52.242;21.118;2023-04-23T12:35:19;99817.52;;;28.96;22.97
33795;BME280;51430;52.242;21.118;2023-04-23T12:37:47;99819.77;;;29.00;23.10
33795;BME280;51430;52.242;21.118;2023-04-23T12:41:31;99812.77;;;28.90;22.90
33795;BME280;51430;52.242;21.118;2023-04-23T12:45:03;99806.27;;;29.19;22.90
33795;BME280;51430;52.242;21.118;2023-04-23T12:49:17;99812.01;;;29.51;22.48
33795;BME280;51430;52.242;21.118;2023-04-23T12:53:29;99807.90;;;29.81;22.47
33795;BME280;51430;52.242;21.118;2023-04-23T12:56:15;99805.79;;;28.80;22.61
33795;BME280;51430;52.242;21.118;2023-04-23T12:59:03;99798.55;;;28.30;22.98
33795;BME280;51430;52.242;21.118;2023-04-23T13:01:33;99791.70;;;29.19;22.18
33795;BME280;51430;52.242;21.118;2023-04-23T13:04:02;99788.39;;;29.13;22.33
33795;BME280;51430;52.242;21.118;2023-04-23T13:06:30;99794.11;;;28.90;22.51
33795;BME280;51430;52.242;21.118;2023-04-23T13:08:58;99784.14;;;28.31;23.36
33795;BME280;51430;52.242;21.118;2023-04-23T13:11:30;99782.06;;;28.61;23.55
33795;BME280;51430;52.242;21.118;2023-04-23T13:13:59;99780.09;;;27.97;23.56
33795;BME280;51430;52.242;21.118;2023-04-23T13:16:32;99782.45;;;28.11;23.47
33795;BME280;51430;52.242;21.118;2023-04-23T13:19:01;99774.18;;;28.06;23.27
33795;BME280;51430;52.242;21.118;2023-04-23T13:21:29;99777.00;;;28.07;23.27
33795;BME280;51430;52.242;21.118;2023-04-23T13:23:57;99771.98;;;28.41;23.11
33795;BME280;51430;52.242;21.118;2023-04-23T13:26:26;99764.45;;;28.56;22.76
33795;BME280;51430;52.242;21.118;2023-04-23T13:29:00;99769.08;;;28.72;22.57
33795;BME280;51430;52.242;21.118;2023-04-23T13:31:36;99763.52;;;27.77;23.16
33795;BME280;51430;52.242;21.118;2023-04-23T13:34:40;99756.61;;;27.98;23.70
33795;BME280;51430;52.242;21.118;2023-04-23T13:37:10;99751.49;;;28.28;23.15
33795;BME280;51430;52.242;21.118;2023-04-23T13:39:58;99744.70;;;28.41;23.04
33795;BME280;51430;52.242;21.118;2023-04-23T13:42:30;99745.84;;;28.41;23.13
33795;BME280;51430;52.242;21.118;2023-04-23T13:44:58;99742.78;;;27.64;23.42
33795;BME280;51430;52.242;21.118;2023-04-23T13:47:32;99743.01;;;27.29;23.66
33795;BME280;51430;52.242;21.118;2023-04-23T13:50:27;99737.48;;;27.70;23.93
33795;BME280;51430;52.242;21.118;2023-04-23T13:53:05;99736.31;;;29.11;22.70
33795;BME280;51430;52.242;21.118;2023-04-23T13:55:33;99734.20;;;28.55;22.72
33795;BME280;51430;52.242;21.118;2023-04-23T13:58:26;99733.54;;;27.86;23.64
33795;BME280;51430;52.242;21.118;2023-04-23T14:00:57;99722.18;;;27.97;23.68
33795;BME280;51430;52.242;21.118;2023-04-23T14:03:27;99718.36;;;28.59;23.39
33795;BME280;51430;52.242;21.118;2023-04-23T14:06:19;99719.63;;;29.17;23.23